Time;durP1;ratioP1;P1;durP2;ratioP2;P2;SDS_P1;SDS_P2;PMS_P1;PMS_P2;Temp;Humidity;BMP_temperature;BMP_pressure;BME280_temperature;BME280_humidity;BME280_pressure;Samples;Min_cycle;Max_cycle;Signal;HPM_P1;HPM_P2
2020/12/09 00:01:31;;;;;;;8.15;4.50;;;;;;;;;;5057993;28;20106;-85
2020/12/09 00:04:00;;;;;;;10.40;4.53;;;;;;;;;;5057571;28;20081;-85
2020/12/09 00:06:26;;;;;;;8.95;5.03;;;;;;;;;;5057676;28;20032;-85
2020/12/09 00:08:52;;;;;;;7.53;4.50;;;;;;;;;;5057831;28;20037;-85
2020/12/09 00:11:18;;;;;;;8.88;4.80;;;;;;;;;;5057620;28;20100;-85
2020/12/09 00:13:45;;;;;;;7.43;3.90;;;;;;;;;;5056639;28;20057;-85
2020/12/09 00:16:11;;;;;;;7.10;4.22;;;;;;;;;;5057739;28;20107;-84
2020/12/09 00:18:37;;;;;;;6.90;3.67;;;;;;;;;;5057481;28;20032;-84
2020/12/09 00:21:03;;;;;;;5.00;3.60;;;;;;;;;;5056738;28;20024;-85
2020/12/09 00:23:29;;;;;;;4.78;3.35;;;;;;;;;;5056472;28;20035;-85
2020/12/09 00:25:55;;;;;;;6.35;3.63;;;;;;;;;;5056559;28;20037;-85
2020/12/09 00:28:22;;;;;;;5.40;3.45;;;;;;;;;;5057472;28;20036;-86
2020/12/09 00:30:48;;;;;;;30.92;4.18;;;;;;;;;;5056474;28;20029;-85
2020/12/09 00:33:15;;;;;;;13.32;4.32;;;;;;;;;;5056498;28;20033;-86
2020/12/09 00:35:41;;;;;;;8.07;4.03;;;;;;;;;;5057296;28;20082;-85
2020/12/09 00:38:07;;;;;;;7.70;4.50;;;;;;;;;;5059255;28;20036;-86
2020/12/09 00:40:36;;;;;;;7.35;4.05;;;;;;;;;;5060407;28;20025;-86
2020/12/09 00:46:06;;;;;;;6.50;3.05;;;;;;;;;;5061337;28;20070;-85
2020/12/09 00:48:32;;;;;;;5.47;3.53;;;;;;;;;;5061716;28;20021;-85
2020/12/09 00:50:59;;;;;;;6.45;3.55;;;;;;;;;;5061799;28;20017;-85
2020/12/09 00:53:26;;;;;;;5.93;3.38;;;;;;;;;;5060204;28;20029;-86
2020/12/09 00:55:52;;;;;;;7.00;3.85;;;;;;;;;;5060175;28;20453;-85
2020/12/09 00:58:18;;;;;;;5.78;3.67;;;;;;;;;;5060788;28;20040;-85
2020/12/09 01:00:44;;;;;;;6.95;3.75;;;;;;;;;;5061382;28;20021;-85
2020/12/09 01:03:11;;;;;;;6.65;4.00;;;;;;;;;;5061304;28;20099;-85
2020/12/09 01:05:37;;;;;;;4.63;3.38;;;;;;;;;;5060876;28;20032;-85
2020/12/09 01:08:03;;;;;;;5.65;3.28;;;;;;;;;;5060853;28;20029;-85
2020/12/09 01:10:29;;;;;;;5.18;3.38;;;;;;;;;;5061087;28;20047;-85
2020/12/09 01:12:55;;;;;;;6.72;3.85;;;;;;;;;;5060741;28;20025;-85
2020/12/09 01:15:21;;;;;;;8.40;3.83;;;;;;;;;;5060099;28;20128;-85
2020/12/09 01:17:47;;;;;;;7.78;3.95;;;;;;;;;;5060877;28;20582;-83
2020/12/09 01:20:13;;;;;;;9.25;4.97;;;;;;;;;;5061187;28;20062;-85
2020/12/09 01:22:39;;;;;;;8.07;5.00;;;;;;;;;;5061097;28;20028;-84
2020/12/09 01:25:05;;;;;;;6.60;3.95;;;;;;;;;;5060858;28;20029;-84
2020/12/09 01:27:31;;;;;;;7.30;4.55;;;;;;;;;;5059563;28;20122;-85
2020/12/09 01:29:57;;;;;;;7.55;4.55;;;;;;;;;;5060576;28;20029;-85
2020/12/09 01:32:23;;;;;;;8.13;4.03;;;;;;;;;;5060928;28;20017;-84
2020/12/09 01:34:50;;;;;;;8.70;4.60;;;;;;;;;;5060443;28;20021;-85
2020/12/09 01:37:16;;;;;;;25.17;5.60;;;;;;;;;;5060566;28;20025;-85
2020/12/09 01:39:42;;;;;;;10.10;4.10;;;;;;;;;;5060697;28;20025;-85
2020/12/09 01:42:08;;;;;;;10.27;4.72;;;;;;;;;;5060042;28;20029;-84
2020/12/09 01:44:34;;;;;;;15.32;5.10;;;;;;;;;;5060152;28;20105;-85
2020/12/09 01:47:07;;;;;;;12.38;4.53;;;;;;;;;;5059137;28;20033;-85
2020/12/09 01:49:33;;;;;;;;;;;;;;;;;;5060521;28;20029;-86
2020/12/09 01:52:02;;;;;;;7.47;3.75;;;;;;;;;;5060332;28;20335;-86
2020/12/09 01:54:29;;;;;;;9.02;4.43;;;;;;;;;;5060100;28;20075;-85
2020/12/09 01:57:04;;;;;;;7.38;4.32;;;;;;;;;;5059075;28;20024;-86
2020/12/09 01:59:30;;;;;;;9.50;4.68;;;;;;;;;;5059391;28;20079;-86
2020/12/09 02:01:56;;;;;;;7.93;4.50;;;;;;;;;;5060222;28;20029;-86
2020/12/09 02:04:22;;;;;;;13.68;5.28;;;;;;;;;;5060094;28;20033;-86
2020/12/09 02:06:50;;;;;;;16.15;8.15;;;;;;;;;;5058900;28;20111;-85
2020/12/09 02:09:16;;;;;;;10.20;5.85;;;;;;;;;;5059945;28;20033;-86
2020/12/09 02:11:42;;;;;;;10.30;5.20;;;;;;;;;;5058805;28;20025;-84
2020/12/09 02:14:08;;;;;;;9.10;5.15;;;;;;;;;;5059906;28;20037;-84
2020/12/09 02:16:34;;;;;;;13.77;7.35;;;;;;;;;;5059974;28;20017;-84
2020/12/09 02:19:00;;;;;;;10.95;5.75;;;;;;;;;;5059591;28;20025;-84
2020/12/09 02:21:26;;;;;;;8.63;4.60;;;;;;;;;;5058616;28;20060;-84
2020/12/09 02:23:52;;;;;;;13.63;7.50;;;;;;;;;;5058817;28;20029;-86
2020/12/09 02:26:18;;;;;;;13.77;5.97;;;;;;;;;;5059608;28;20067;-85
2020/12/09 02:28:44;;;;;;;14.27;6.43;;;;;;;;;;5059511;28;20070;-85
2020/12/09 02:31:10;;;;;;;16.85;8.70;;;;;;;;;;5059750;28;20017;-86
2020/12/09 02:33:36;;;;;;;15.40;6.47;;;;;;;;;;5058386;28;20025;-84
2020/12/09 02:36:02;;;;;;;10.32;5.10;;;;;;;;;;5059381;28;20112;-86
2020/12/09 02:38:28;;;;;;;11.15;5.65;;;;;;;;;;5059309;28;20045;-84
2020/12/09 02:40:54;;;;;;;11.23;4.85;;;;;;;;;;5058326;28;20025;-85
2020/12/09 02:43:20;;;;;;;10.10;4.65;;;;;;;;;;5059188;28;20032;-84
2020/12/09 02:45:46;;;;;;;7.35;4.30;;;;;;;;;;5059404;28;20113;-85
2020/12/09 02:48:12;;;;;;;5.90;3.63;;;;;;;;;;5059022;28;20021;-85
2020/12/09 02:50:38;;;;;;;9.85;5.05;;;;;;;;;;5058039;28;20127;-85
2020/12/09 02:53:04;;;;;;;25.08;7.57;;;;;;;;;;5057850;28;20037;-85
2020/12/09 02:55:30;;;;;;;15.10;5.60;;;;;;;;;;5059017;28;20087;-85
2020/12/09 02:57:56;;;;;;;15.25;5.45;;;;;;;;;;5058802;28;20024;-85
2020/12/09 03:00:22;;;;;;;12.45;5.30;;;;;;;;;;5058230;28;20060;-85
2020/12/09 03:02:49;;;;;;;9.68;4.60;;;;;;;;;;5059007;28;20311;-85
2020/12/09 03:05:15;;;;;;;10.43;4.95;;;;;;;;;;5059071;28;20033;-85
2020/12/09 03:07:41;;;;;;;9.30;4.82;;;;;;;;;;5058754;28;20029;-85
2020/12/09 03:10:10;;;;;;;8.00;4.53;;;;;;;;;;5057624;28;20028;-85
2020/12/09 03:12:36;;;;;;;7.85;4.38;;;;;;;;;;5057488;28;20040;-84
2020/12/09 03:15:02;;;;;;;7.13;4.07;;;;;;;;;;5057682;28;20159;-85
2020/12/09 03:17:28;;;;;;;6.40;3.95;;;;;;;;;;5058929;28;20050;-86
2020/12/09 03:19:55;;;;;;;6.60;3.72;;;;;;;;;;5059005;28;20025;-85
2020/12/09 03:22:21;;;;;;;6.32;4.03;;;;;;;;;;5058627;28;20024;-85
2020/12/09 03:24:47;;;;;;;6.57;4.05;;;;;;;;;;5058435;28;20028;-85
2020/12/09 03:27:13;;;;;;;7.18;3.60;;;;;;;;;;5058651;28;20032;-84
2020/12/09 03:29:40;;;;;;;6.28;3.67;;;;;;;;;;5058288;28;20028;-85
2020/12/09 03:32:06;;;;;;;6.82;4.18;;;;;;;;;;5058248;28;20415;-85
2020/12/09 03:34:32;;;;;;;7.85;3.67;;;;;;;;;;5057194;28;20142;-85
2020/12/09 03:36:58;;;;;;;6.85;3.40;;;;;;;;;;5057175;28;20021;-85
2020/12/09 03:39:24;;;;;;;5.78;3.67;;;;;;;;;;5058272;28;20032;-84
2020/12/09 03:41:50;;;;;;;6.63;3.42;;;;;;;;;;5057126;28;20402;-85
2020/12/09 03:44:16;;;;;;;7.00;3.53;;;;;;;;;;5058518;28;20377;-85
2020/12/09 03:46:42;;;;;;;6.05;3.83;;;;;;;;;;5057986;28;20354;-84
2020/12/09 03:49:08;;;;;;;6.68;2.95;;;;;;;;;;5058110;28;20288;-86
2020/12/09 03:51:34;;;;;;;6.53;3.28;;;;;;;;;;5058113;28;20097;-85
2020/12/09 03:54:00;;;;;;;5.25;3.30;;;;;;;;;;5058081;28;20025;-85
2020/12/09 03:56:26;;;;;;;4.93;3.38;;;;;;;;;;5057719;28;20045;-85
2020/12/09 03:58:52;;;;;;;5.43;3.50;;;;;;;;;;5057824;28;20048;-86
2020/12/09 04:01:18;;;;;;;4.55;2.92;;;;;;;;;;5057824;28;20048;-84
2020/12/09 04:03:45;;;;;;;4.25;2.90;;;;;;;;;;5057651;28;20441;-85
2020/12/09 04:06:11;;;;;;;4.35;2.97;;;;;;;;;;5057043;28;20051;-85
2020/12/09 04:08:37;;;;;;;5.13;3.03;;;;;;;;;;5057800;28;20112;-84
2020/12/09 04:11:03;;;;;;;4.13;2.88;;;;;;;;;;5057607;28;20021;-85
2020/12/09 04:13:29;;;;;;;5.28;3.15;;;;;;;;;;5057626;28;20021;-85
2020/12/09 04:15:55;;;;;;;5.53;3.13;;;;;;;;;;5057877;28;20021;-85
2020/12/09 04:18:21;;;;;;;4.03;2.90;;;;;;;;;;5057861;28;20032;-84
2020/12/09 04:20:47;;;;;;;6.25;3.40;;;;;;;;;;5057664;28;20033;-85
2020/12/09 04:23:13;;;;;;;7.15;3.65;;;;;;;;;;5056718;28;20069;-85
2020/12/09 04:25:39;;;;;;;8.38;3.88;;;;;;;;;;5057555;28;20033;-85
2020/12/09 04:28:05;;;;;;;8.23;3.80;;;;;;;;;;5057410;28;20025;-85
2020/12/09 04:30:31;;;;;;;7.93;3.90;;;;;;;;;;5057327;28;20101;-85
2020/12/09 04:32:57;;;;;;;6.22;3.80;;;;;;;;;;5057536;28;20029;-85
2020/12/09 04:35:24;;;;;;;8.63;5.00;;;;;;;;;;5057582;28;20025;-85
2020/12/09 04:37:55;;;;;;;7.75;4.70;;;;;;;;;;5056402;28;20029;-85
2020/12/09 04:40:21;;;;;;;10.23;5.32;;;;;;;;;;5057233;28;20025;-85
2020/12/09 04:42:58;;;;;;;8.70;4.57;;;;;;;;;;5057296;28;20032;-85
2020/12/09 04:45:24;;;;;;;34.55;28.33;;;;;;;;;;5057237;28;20025;-85
2020/12/09 04:47:57;;;;;;;10.77;4.78;;;;;;;;;;5057173;28;20156;-86
2020/12/09 04:50:27;;;;;;;16.17;6.72;;;;;;;;;;5057429;28;20044;-85
2020/12/09 04:53:19;;;;;;;26.67;12.77;;;;;;;;;;5057271;28;20319;-85
2020/12/09 04:55:50;;;;;;;91.68;31.00;;;;;;;;;;5057048;28;20044;-85
2020/12/09 04:58:36;;;;;;;98.72;41.85;;;;;;;;;;5057519;28;20036;-86
2020/12/09 05:01:06;;;;;;;16.90;7.53;;;;;;;;;;5057266;28;20058;-85
2020/12/09 05:03:42;;;;;;;12.88;5.78;;;;;;;;;;5057160;28;20352;-86
2020/12/09 05:06:09;;;;;;;10.70;5.05;;;;;;;;;;5057063;28;20033;-85
2020/12/09 05:08:36;;;;;;;11.02;5.30;;;;;;;;;;5057054;28;20037;-84
2020/12/09 05:11:06;;;;;;;12.85;5.55;;;;;;;;;;5056994;28;20391;-85
2020/12/09 05:13:35;;;;;;;12.18;4.82;;;;;;;;;;5056070;28;20029;-85
2020/12/09 05:16:02;;;;;;;11.35;5.30;;;;;;;;;;5056657;28;20025;-84
2020/12/09 05:18:38;;;;;;;9.75;4.63;;;;;;;;;;5056795;28;20039;-86
2020/12/09 05:21:12;;;;;;;10.85;4.65;;;;;;;;;;5057268;28;20021;-86
2020/12/09 05:23:40;;;;;;;11.65;5.38;;;;;;;;;;5057107;28;20033;-86
2020/12/09 05:26:06;;;;;;;11.75;5.03;;;;;;;;;;5060986;28;20071;-84
2020/12/09 05:28:32;;;;;;;11.38;4.60;;;;;;;;;;5059512;28;20032;-84
2020/12/09 05:30:58;;;;;;;24.88;8.43;;;;;;;;;;5060665;28;20025;-86
2020/12/09 05:33:30;;;;;;;13.05;5.57;;;;;;;;;;5060561;28;20021;-85
2020/12/09 05:35:57;;;;;;;13.60;5.32;;;;;;;;;;5060640;28;20029;-85
2020/12/09 05:38:23;;;;;;;13.63;5.43;;;;;;;;;;5060508;28;20427;-85
2020/12/09 05:40:49;;;;;;;11.40;4.55;;;;;;;;;;5059334;28;20418;-85
2020/12/09 05:43:15;;;;;;;8.90;4.82;;;;;;;;;;5060484;28;20021;-85
2020/12/09 05:45:43;;;;;;;13.55;6.95;;;;;;;;;;5060284;28;20028;-86
2020/12/09 05:48:20;;;;;;;10.05;5.10;;;;;;;;;;5060351;28;20037;-86
2020/12/09 05:50:49;;;;;;;14.35;5.65;;;;;;;;;;5060304;28;20017;-85
2020/12/09 05:53:19;;;;;;;16.33;6.75;;;;;;;;;;5059346;28;20032;-85
2020/12/09 05:55:46;;;;;;;12.77;6.20;;;;;;;;;;5060114;28;20040;-86
2020/12/09 05:58:40;;;;;;;27.08;12.65;;;;;;;;;;5060450;28;20025;-85
2020/12/09 06:01:10;;;;;;;30.27;16.17;;;;;;;;;;5060061;28;20107;-85
2020/12/09 06:03:43;;;;;;;21.38;12.68;;;;;;;;;;5060186;28;20104;-84
2020/12/09 06:06:11;;;;;;;22.40;12.07;;;;;;;;;;5060202;28;20319;-85
2020/12/09 06:08:38;;;;;;;104.70;44.97;;;;;;;;;;5059887;28;20040;-85
2020/12/09 06:11:04;;;;;;;24.20;14.02;;;;;;;;;;5059831;28;20017;-85
2020/12/09 06:13:34;;;;;;;38.95;19.55;;;;;;;;;;5059983;28;20029;-85
2020/12/09 06:16:01;;;;;;;15.43;8.98;;;;;;;;;;5058829;28;20031;-84
2020/12/09 06:18:29;;;;;;;15.93;9.75;;;;;;;;;;5059712;28;20094;-85
2020/12/09 06:20:55;;;;;;;49.45;22.83;;;;;;;;;;5058721;28;20025;-84
2020/12/09 06:23:21;;;;;;;23.50;12.43;;;;;;;;;;5059575;28;20419;-85
2020/12/09 06:25:47;;;;;;;12.70;7.43;;;;;;;;;;5059667;28;20059;-85
2020/12/09 06:28:18;;;;;;;23.83;13.70;;;;;;;;;;5059757;28;20029;-86
2020/12/09 06:30:44;;;;;;;10.85;6.82;;;;;;;;;;5058625;28;20017;-85
2020/12/09 06:33:11;;;;;;;19.55;10.63;;;;;;;;;;5058658;28;20063;-85
2020/12/09 06:35:37;;;;;;;17.58;11.15;;;;;;;;;;5058310;28;20076;-85
2020/12/09 06:38:09;;;;;;;11.98;6.95;;;;;;;;;;5059587;28;20304;-85
2020/12/09 06:40:35;;;;;;;14.77;8.82;;;;;;;;;;5059290;28;20079;-84
2020/12/09 06:43:08;;;;;;;5.32;3.90;;;;;;;;;;5059051;28;20070;-85
2020/12/09 06:45:41;;;;;;;11.63;7.05;;;;;;;;;;5059435;28;20031;-86
2020/12/09 06:48:17;;;;;;;8.75;4.90;;;;;;;;;;5059295;28;20044;-85
2020/12/09 06:50:44;;;;;;;11.40;6.00;;;;;;;;;;5059191;28;20116;-85
2020/12/09 06:53:17;;;;;;;12.48;5.28;;;;;;;;;;5058825;28;20104;-85
2020/12/09 06:55:43;;;;;;;9.15;5.60;;;;;;;;;;5059225;28;20055;-85
2020/12/09 06:58:25;;;;;;;14.43;7.22;;;;;;;;;;5059248;28;20403;-83
2020/12/09 07:01:01;;;;;;;7.10;4.35;;;;;;;;;;5058010;28;20029;-85
2020/12/09 07:03:28;;;;;;;17.13;9.05;;;;;;;;;;5058904;28;20423;-85
2020/12/09 07:05:56;;;;;;;10.63;5.20;;;;;;;;;;5058764;28;20033;-85
2020/12/09 07:08:22;;;;;;;9.82;5.50;;;;;;;;;;5058987;28;20037;-85
2020/12/09 07:10:49;;;;;;;8.50;5.55;;;;;;;;;;5058796;28;20048;-86
2020/12/09 07:13:18;;;;;;;12.82;6.97;;;;;;;;;;5058780;28;20108;-86
2020/12/09 07:15:47;;;;;;;11.00;6.60;;;;;;;;;;5058647;28;20055;-85
2020/12/09 07:18:13;;;;;;;11.70;6.57;;;;;;;;;;5057740;28;20033;-85
2020/12/09 07:20:40;;;;;;;11.38;6.95;;;;;;;;;;5058535;28;20040;-85
2020/12/09 07:23:06;;;;;;;8.85;5.60;;;;;;;;;;5058413;28;20422;-86
2020/12/09 07:25:34;;;;;;;18.77;8.88;;;;;;;;;;5058562;28;20021;-84
2020/12/09 07:28:00;;;;;;;26.05;13.07;;;;;;;;;;5058500;28;20049;-85
2020/12/09 07:30:27;;;;;;;19.50;10.32;;;;;;;;;;5058278;28;20024;-85
2020/12/09 07:32:56;;;;;;;12.07;6.45;;;;;;;;;;5057328;28;20322;-85
2020/12/09 07:35:23;;;;;;;13.50;7.10;;;;;;;;;;5057285;28;20021;-84
2020/12/09 07:37:53;;;;;;;17.63;8.77;;;;;;;;;;5057344;28;20040;-84
2020/12/09 07:40:27;;;;;;;14.18;7.18;;;;;;;;;;5057300;28;20318;-85
2020/12/09 07:43:01;;;;;;;11.02;5.93;;;;;;;;;;5056883;28;20025;-84
2020/12/09 07:45:27;;;;;;;12.27;5.85;;;;;;;;;;5057288;28;20025;-85
2020/12/09 07:48:10;;;;;;;11.15;5.63;;;;;;;;;;5057857;28;20070;-85
2020/12/09 07:50:36;;;;;;;17.67;7.20;;;;;;;;;;5058205;28;20036;-85
2020/12/09 07:53:03;;;;;;;13.60;8.18;;;;;;;;;;5058205;28;20018;-85
2020/12/09 07:55:32;;;;;;;15.05;7.95;;;;;;;;;;5057491;28;20045;-78
2020/12/09 07:58:08;;;;;;;8.52;4.97;;;;;;;;;;5057417;28;20381;-77
2020/12/09 08:00:47;;;;;;;9.13;5.13;;;;;;;;;;5057777;28;20055;-86
2020/12/09 08:03:31;;;;;;;14.63;6.22;;;;;;;;;;5058000;28;20025;-85
2020/12/09 08:05:58;;;;;;;36.47;16.90;;;;;;;;;;5057809;28;20071;-84
2020/12/09 08:08:26;;;;;;;35.13;19.17;;;;;;;;;;5057690;28;20033;-85
2020/12/09 08:10:52;;;;;;;15.20;7.18;;;;;;;;;;5058136;28;20029;-85
2020/12/09 08:13:22;;;;;;;11.05;6.45;;;;;;;;;;5057429;28;20067;-84
2020/12/09 08:16:13;;;;;;;9.30;5.50;;;;;;;;;;5057842;28;20087;-85
2020/12/09 08:18:40;;;;;;;19.52;11.20;;;;;;;;;;5057808;28;20025;-84
2020/12/09 08:21:06;;;;;;;11.68;7.35;;;;;;;;;;5057563;28;20033;-84
2020/12/09 08:23:41;;;;;;;15.23;7.18;;;;;;;;;;5057215;28;20025;-84
2020/12/09 08:26:07;;;;;;;20.40;10.50;;;;;;;;;;5057195;28;20029;-84
2020/12/09 08:28:34;;;;;;;13.02;8.32;;;;;;;;;;5057285;28;20029;-84
2020/12/09 08:31:00;;;;;;;18.17;11.00;;;;;;;;;;5056152;28;20029;-84
2020/12/09 08:33:27;;;;;;;22.95;10.55;;;;;;;;;;5056419;28;20054;-85
2020/12/09 08:35:57;;;;;;;14.35;8.40;;;;;;;;;;5057422;28;20033;-85
2020/12/09 08:38:24;;;;;;;38.65;16.88;;;;;;;;;;5057311;28;20041;-85
2020/12/09 08:40:53;;;;;;;23.85;13.07;;;;;;;;;;5057534;28;20025;-85
2020/12/09 08:43:22;;;;;;;12.77;7.57;;;;;;;;;;5057434;28;20108;-85
2020/12/09 08:45:48;;;;;;;14.90;7.70;;;;;;;;;;5056215;28;20492;-84
2020/12/09 08:48:14;;;;;;;14.75;7.68;;;;;;;;;;5057728;28;20408;-84
2020/12/09 08:50:40;;;;;;;12.88;6.25;;;;;;;;;;5057256;28;20028;-84
2020/12/09 08:53:06;;;;;;;34.38;17.05;;;;;;;;;;5056324;28;20120;-85
2020/12/09 08:55:32;;;;;;;24.65;12.70;;;;;;;;;;5057200;28;20037;-85
2020/12/09 08:57:58;;;;;;;18.10;10.05;;;;;;;;;;5056426;28;20037;-85
2020/12/09 09:00:24;;;;;;;30.17;15.65;;;;;;;;;;5060228;28;20025;-84
2020/12/09 09:02:50;;;;;;;19.50;9.32;;;;;;;;;;5061265;28;20036;-84
2020/12/09 09:05:16;;;;;;;12.40;7.30;;;;;;;;;;5061328;28;20036;-85
2020/12/09 09:07:42;;;;;;;17.92;10.45;;;;;;;;;;5060985;28;20102;-85
2020/12/09 09:10:08;;;;;;;12.90;6.80;;;;;;;;;;5059866;28;20315;-84
2020/12/09 09:12:34;;;;;;;15.52;7.82;;;;;;;;;;5060013;28;20017;-84
2020/12/09 09:15:00;;;;;;;13.57;5.43;;;;;;;;;;5059880;28;20025;-84
2020/12/09 09:17:26;;;;;;;15.90;7.43;;;;;;;;;;5060711;28;20048;-84
2020/12/09 09:19:53;;;;;;;20.48;7.47;;;;;;;;;;5060883;28;20025;-85
2020/12/09 09:22:19;;;;;;;31.75;14.45;;;;;;;;;;5059927;28;20056;-85
2020/12/09 09:24:45;;;;;;;17.92;9.52;;;;;;;;;;5060782;28;20025;-85
2020/12/09 09:27:11;;;;;;;13.95;7.20;;;;;;;;;;5060804;28;20032;-84
2020/12/09 09:29:38;;;;;;;19.17;7.63;;;;;;;;;;5059633;28;20069;-84
2020/12/09 09:32:05;;;;;;;15.13;7.60;;;;;;;;;;5060745;28;20414;-84
2020/12/09 09:34:32;;;;;;;16.05;7.80;;;;;;;;;;5060486;28;20036;-84
2020/12/09 09:36:58;;;;;;;18.90;8.85;;;;;;;;;;5059591;28;20048;-84
2020/12/09 09:39:24;;;;;;;45.67;27.17;;;;;;;;;;5059432;28;20025;-85
2020/12/09 09:41:50;;;;;;;17.63;9.13;;;;;;;;;;5060464;28;20040;-84
2020/12/09 09:44:32;;;;;;;13.68;7.70;;;;;;;;;;5059280;28;20032;-84
2020/12/09 09:47:00;;;;;;;19.50;10.95;;;;;;;;;;5060389;28;20025;-85
2020/12/09 09:49:27;;;;;;;12.45;6.57;;;;;;;;;;5059897;28;20043;-85
2020/12/09 09:51:53;;;;;;;10.30;5.97;;;;;;;;;;5060190;28;20025;-84
2020/12/09 09:54:20;;;;;;;13.43;8.55;;;;;;;;;;5060070;28;20410;-84
2020/12/09 09:56:46;;;;;;;10.63;6.00;;;;;;;;;;5060370;28;20047;-84
2020/12/09 09:59:12;;;;;;;10.50;6.15;;;;;;;;;;5058701;28;20414;-77
2020/12/09 10:01:38;;;;;;;14.30;7.50;;;;;;;;;;5059278;28;20071;-78
2020/12/09 10:04:06;;;;;;;89.43;23.92;;;;;;;;;;5054159;28;20029;-78
2020/12/09 10:06:38;;;;;;;47.95;20.95;;;;;;;;;;5039569;28;20048;-78
2020/12/09 10:09:05;;;;;;;27.58;13.38;;;;;;;;;;5039461;28;20033;-78
2020/12/09 10:11:32;;;;;;;20.65;10.77;;;;;;;;;;5039688;28;20409;-78
2020/12/09 10:13:58;;;;;;;24.60;12.32;;;;;;;;;;5039491;28;20057;-78
2020/12/09 10:16:27;;;;;;;23.95;11.55;;;;;;;;;;5039429;28;20100;-78
2020/12/09 10:18:54;;;;;;;18.38;8.05;;;;;;;;;;5039587;28;20025;-78
2020/12/09 10:21:27;;;;;;;22.88;9.13;;;;;;;;;;5038995;28;20026;-77
2020/12/09 10:23:53;;;;;;;39.58;14.68;;;;;;;;;;5039361;28;20112;-77
2020/12/09 10:26:26;;;;;;;29.55;13.18;;;;;;;;;;5039138;28;20086;-78
2020/12/09 10:28:52;;;;;;;16.00;9.15;;;;;;;;;;5039003;28;20423;-78
2020/12/09 10:31:18;;;;;;;11.32;6.43;;;;;;;;;;5038097;28;20029;-78
2020/12/09 10:33:44;;;;;;;17.10;8.88;;;;;;;;;;5039123;28;20081;-84
2020/12/09 10:36:10;;;;;;;15.48;8.70;;;;;;;;;;5039529;28;20319;-84
2020/12/09 10:38:36;;;;;;;15.75;8.02;;;;;;;;;;5039665;28;20381;-84
2020/12/09 10:41:02;;;;;;;13.23;6.93;;;;;;;;;;5039691;28;20032;-85
2020/12/09 10:43:28;;;;;;;28.55;14.05;;;;;;;;;;5039557;28;20109;-84
2020/12/09 10:45:54;;;;;;;29.90;12.15;;;;;;;;;;5039280;28;20029;-85
2020/12/09 10:48:20;;;;;;;29.17;12.02;;;;;;;;;;5038006;28;20049;-84
2020/12/09 10:50:47;;;;;;;27.17;11.88;;;;;;;;;;5039497;28;20100;-84
2020/12/09 10:53:13;;;;;;;13.50;7.15;;;;;;;;;;5038816;28;20064;-84
2020/12/09 10:55:39;;;;;;;14.13;7.60;;;;;;;;;;5039000;28;20045;-84
2020/12/09 10:58:05;;;;;;;39.47;17.40;;;;;;;;;;5039097;28;20029;-84
2020/12/09 11:00:32;;;;;;;18.25;8.18;;;;;;;;;;5038075;28;20025;-85
2020/12/09 11:02:58;;;;;;;16.10;8.38;;;;;;;;;;5039156;28;20061;-85
2020/12/09 11:05:24;;;;;;;16.23;9.05;;;;;;;;;;5038787;28;20030;-84
2020/12/09 11:07:50;;;;;;;18.15;9.98;;;;;;;;;;5038562;28;20037;-84
2020/12/09 11:10:16;;;;;;;70.53;42.28;;;;;;;;;;5037732;28;20028;-84
2020/12/09 11:12:42;;;;;;;10.90;6.72;;;;;;;;;;5039564;28;20304;-84
2020/12/09 11:15:08;;;;;;;20.05;14.20;;;;;;;;;;5050978;28;20395;-84
2020/12/09 11:17:34;;;;;;;14.45;8.75;;;;;;;;;;5051926;28;20025;-84
2020/12/09 11:20:00;;;;;;;51.85;33.05;;;;;;;;;;5038534;28;20025;-84
2020/12/09 11:22:26;;;;;;;27.48;17.85;;;;;;;;;;5038242;28;20045;-84
2020/12/09 11:24:52;;;;;;;17.95;10.60;;;;;;;;;;5056349;28;20025;-84
2020/12/09 11:27:18;;;;;;;34.15;20.20;;;;;;;;;;5058765;28;20029;-84
2020/12/09 11:29:44;;;;;;;65.40;38.38;;;;;;;;;;5057372;28;20119;-84
2020/12/09 11:32:13;;;;;;;20.20;12.10;;;;;;;;;;5057153;28;20024;-84
2020/12/09 11:34:39;;;;;;;30.63;16.92;;;;;;;;;;5058301;28;20067;-84
2020/12/09 11:37:05;;;;;;;388.20;165.75;;;;;;;;;;5057801;28;20028;-84
2020/12/09 11:39:31;;;;;;;147.52;59.55;;;;;;;;;;5058121;28;20040;-84
2020/12/09 11:41:58;;;;;;;130.52;59.50;;;;;;;;;;5039203;28;20171;-84
2020/12/09 11:44:24;;;;;;;366.17;168.18;;;;;;;;;;5038123;28;20032;-85
2020/12/09 11:46:50;;;;;;;324.83;136.43;;;;;;;;;;5038228;28;20096;-84
2020/12/09 11:49:16;;;;;;;260.65;105.05;;;;;;;;;;5037057;28;20419;-84
2020/12/09 11:51:42;;;;;;;177.75;77.55;;;;;;;;;;5038121;28;20096;-84
2020/12/09 11:54:08;;;;;;;643.28;317.00;;;;;;;;;;5036599;28;20026;-84
2020/12/09 11:56:34;;;;;;;212.00;95.40;;;;;;;;;;5037525;28;20412;-85
2020/12/09 11:59:08;;;;;;;180.27;84.88;;;;;;;;;;5037040;28;20054;-82
2020/12/09 12:01:35;;;;;;;377.98;174.15;;;;;;;;;;5037956;28;20461;-87
2020/12/09 12:04:01;;;;;;;150.23;65.25;;;;;;;;;;5037040;28;20054;-86
2020/12/09 12:06:28;;;;;;;117.43;53.45;;;;;;;;;;5037178;28;20140;-87
2020/12/09 12:08:55;;;;;;;64.35;29.48;;;;;;;;;;5038019;28;20108;-87
2020/12/09 12:11:22;;;;;;;167.45;68.32;;;;;;;;;;5038063;28;20025;-87
2020/12/09 12:13:48;;;;;;;284.52;122.00;;;;;;;;;;5037016;28;20033;-88
2020/12/09 12:16:15;;;;;;;29.77;13.10;;;;;;;;;;5037919;28;20381;-87
2020/12/09 12:18:42;;;;;;;80.80;34.10;;;;;;;;;;5037747;28;20021;-86
2020/12/09 12:21:11;;;;;;;120.45;46.45;;;;;;;;;;5036733;28;20136;-86
2020/12/09 12:23:37;;;;;;;36.72;15.75;;;;;;;;;;5037626;28;20427;-87
2020/12/09 12:26:03;;;;;;;116.22;42.90;;;;;;;;;;5037551;28;20025;-87
2020/12/09 12:28:29;;;;;;;116.68;41.42;;;;;;;;;;5036482;28;20435;-87
2020/12/09 12:30:55;;;;;;;104.28;38.53;;;;;;;;;;5037749;28;20030;-86
2020/12/09 12:33:21;;;;;;;31.23;11.98;;;;;;;;;;5036628;28;20022;-86
2020/12/09 12:35:47;;;;;;;89.18;31.55;;;;;;;;;;5037636;28;20660;-86
2020/12/09 12:38:13;;;;;;;274.88;84.68;;;;;;;;;;5037521;28;20037;-86
2020/12/09 12:40:39;;;;;;;354.48;112.90;;;;;;;;;;5037369;28;20028;-86
2020/12/09 12:43:05;;;;;;;93.57;33.92;;;;;;;;;;5036503;28;20032;-86
2020/12/09 12:45:32;;;;;;;114.75;39.45;;;;;;;;;;5036791;28;20037;-87
2020/12/09 12:47:58;;;;;;;308.17;120.47;;;;;;;;;;5036630;28;20087;-87
2020/12/09 12:50:24;;;;;;;167.05;58.55;;;;;;;;;;5037576;28;20319;-87
2020/12/09 12:52:50;;;;;;;78.90;28.98;;;;;;;;;;5037684;28;20327;-89
2020/12/09 12:55:16;;;;;;;193.95;62.35;;;;;;;;;;5037499;28;20087;-90
2020/12/09 12:57:42;;;;;;;36.15;14.52;;;;;;;;;;5036748;28;20037;-90
2020/12/09 13:00:08;;;;;;;260.05;79.38;;;;;;;;;;5037540;28;20025;-89
2020/12/09 13:02:34;;;;;;;70.70;26.05;;;;;;;;;;5036665;28;20029;-88
2020/12/09 13:05:01;;;;;;;516.75;191.05;;;;;;;;;;5037109;28;20022;-90
2020/12/09 13:07:27;;;;;;;374.67;141.18;;;;;;;;;;5037651;28;20033;-90
2020/12/09 13:09:53;;;;;;;125.05;44.90;;;;;;;;;;5037279;28;20454;-90
2020/12/09 13:12:20;;;;;;;217.30;79.05;;;;;;;;;;5036530;28;20443;-90
2020/12/09 13:14:46;;;;;;;399.35;145.98;;;;;;;;;;5037298;28;20025;-89
2020/12/09 13:17:12;;;;;;;194.75;64.95;;;;;;;;;;5037352;28;20407;-90
2020/12/09 13:19:38;;;;;;;91.90;32.70;;;;;;;;;;5036147;28;20038;-90
2020/12/09 13:22:05;;;;;;;462.23;180.40;;;;;;;;;;5037552;28;20286;-89
2020/12/09 13:24:31;;;;;;;83.05;32.70;;;;;;;;;;5036336;28;20125;-90
2020/12/09 13:26:58;;;;;;;94.30;34.58;;;;;;;;;;5036577;28;20072;-87
2020/12/09 13:29:24;;;;;;;100.82;38.38;;;;;;;;;;5037148;28;20029;-89
2020/12/09 13:31:51;;;;;;;261.05;93.22;;;;;;;;;;5037051;28;20018;-90
2020/12/09 13:34:17;;;;;;;471.08;184.07;;;;;;;;;;5036967;28;20026;-89
2020/12/09 13:36:43;;;;;;;242.00;80.72;;;;;;;;;;5037030;28;20036;-90
2020/12/09 13:39:10;;;;;;;49.03;18.92;;;;;;;;;;5036008;28;20030;-89
2020/12/09 13:41:36;;;;;;;20.73;12.15;;;;;;;;;;5036993;28;20025;-89
2020/12/09 13:44:02;;;;;;;284.13;99.43;;;;;;;;;;5037128;28;20025;-89
2020/12/09 13:46:28;;;;;;;104.50;38.50;;;;;;;;;;5039971;28;20104;-90
2020/12/09 13:48:57;;;;;;;273.98;95.43;;;;;;;;;;5039697;28;20037;-88
2020/12/09 13:51:24;;;;;;;107.85;40.60;;;;;;;;;;5039819;28;20061;-89
2020/12/09 13:53:50;;;;;;;19.58;8.82;;;;;;;;;;5040476;28;20322;-88
2020/12/09 13:56:17;;;;;;;47.58;19.45;;;;;;;;;;5040291;28;20393;-89
2020/12/09 13:58:43;;;;;;;57.50;22.95;;;;;;;;;;5039887;28;20099;-89
2020/12/09 14:01:12;;;;;;;122.60;43.22;;;;;;;;;;5040302;28;20030;-88
2020/12/09 14:03:38;;;;;;;50.17;19.67;;;;;;;;;;5039358;28;20076;-90
2020/12/09 14:06:05;;;;;;;100.50;33.67;;;;;;;;;;5039470;28;20025;-88
2020/12/09 14:08:31;;;;;;;35.25;13.48;;;;;;;;;;5040491;28;20041;-88
2020/12/09 14:10:57;;;;;;;100.22;35.10;;;;;;;;;;5040268;28;20025;-88
2020/12/09 14:13:23;;;;;;;32.22;14.25;;;;;;;;;;5040091;28;20032;-89
2020/12/09 14:15:52;;;;;;;128.00;45.20;;;;;;;;;;5039167;28;20067;-92
2020/12/09 14:18:18;;;;;;;48.25;16.13;;;;;;;;;;5039921;28;20036;-92
2020/12/09 14:20:50;;;;;;;65.00;23.45;;;;;;;;;;5039759;28;20391;-92
2020/12/09 14:23:16;;;;;;;260.95;82.93;;;;;;;;;;5040008;28;20404;-91
2020/12/09 14:25:42;;;;;;;114.63;37.40;;;;;;;;;;5039871;28;20026;-91
2020/12/09 14:28:09;;;;;;;406.60;130.52;;;;;;;;;;5039718;28;20089;-92
2020/12/09 14:30:35;;;;;;;57.47;23.27;;;;;;;;;;5040089;28;20093;-91